Observations for PERUGIA, Italy (LIRZ)

LIRZ 100207Z AUTO VRB02KT 4900 R01/0800VP1500D BR NCD 03/03 Q1012
LIRZ 100208Z AUTO VRB02KT 1100 R01/1300D BR NCD 03/03 Q1012
LIRZ 100210Z AUTO VRB02KT 0400 R01/1200D FG NCD 03/03 Q1012
LIRZ 100150Z AUTO 01004KT 6000 NCD 03/02 Q1012  
LIRZ 100113Z AUTO 01005KT 5000 BR NCD 03/02 Q1012
LIRZ 100055Z AUTO 35003KT 4900 BR NCD 04/04 Q1012
LIRZ 100050Z AUTO 35003KT 320V020 5000 BR NCD 04/04 Q1011   
LIRZ 100003Z AUTO 01004KT 5000 BR NCD 04/03 Q1011
LIRZ 092350Z AUTO 36004KT 4700 BR NCD 04/03 Q1011   
LIRZ 092250Z AUTO VRB01KT 7000 SCT029/// 05/04 Q1011
LIRZ 092250Z AUTO VRB01KT 7000 SCT029 05/04 Q1011
LIRZ 092150Z 02002KT 9999 SCT035 06/06 Q1011
LIRZ 092050Z VRB02KT 9999 SCT040 07/06 Q1010
LIRZ 091950Z 02002KT 9999 SCT040 08/06 Q1010
LIRZ 091850Z VRB02KT 9999 SCT040 10/08 Q1010
LIRZ 091750Z 18003KT 150V210 9999 BKN040 10/08 Q1009
LIRZ 091650Z 08004KT 9999 BKN040 11/08 Q1009
LIRZ 091550Z VRB02KT 9999 BKN040 11/08 Q1009
LIRZ 091450Z 33003KT 310V010 9999 BKN040 11/08 Q1009
LIRZ 091350Z 17004KT 140V200 9999 BKN040 12/07 Q1009
LIRZ 091250Z 18005KT 9999 BKN050 13/07 Q1009
LIRZ 091150Z VRB01KT 9999 BKN050 11/07 Q1010
LIRZ 091050Z 01003KT 340V040 9999 BKN050 10/05 Q1011
LIRZ 090950Z 33003KT 290V010 9999 BKN050 07/03 Q1012
LIRZ 090850Z VRB01KT 9999 BKN050 04/03 Q1013
LIRZ 090750Z VRB02KT 9999 SCT040 03/02 Q1013
LIRZ 090650Z 34002KT 9999 SCT040 01/01 Q1014
LIRZ 090550Z AUTO 32002KT 9999 SCT034/// 01/01 Q1015
LIRZ 090550Z AUTO 32002KT 9999 SCT034 01/01 Q1015
LIRZ 090450Z AUTO 05002KT 9999 BKN030/// 03/01 Q1015
LIRZ 090450Z AUTO 05002KT 9999 BKN030 03/01 Q1015
LIRZ 090350Z AUTO 32003KT 260V070 9999 BKN034/// 03/02 Q1016
LIRZ 090350Z AUTO 32003KT 260V070 9999 BKN034 03/02 Q1016
LIRZ 090250Z AUTO 31004KT 280V340 9999 BKN034/// 01/01 Q1017
LIRZ 090250Z AUTO 31004KT 280V340 9999 BKN034 01/01 Q1017
LIRZ 090150Z AUTO 35004KT 9999 FEW035/// 01/00 Q1017
LIRZ 090150Z AUTO 35004KT 9999 FEW035 01/00 Q1017